Time;durP1;ratioP1;P1;durP2;ratioP2;P2;SDS_P1;SDS_P2;PMS_P1;PMS_P2;Temp;Humidity;BMP_temperature;BMP_pressure;BME280_temperature;BME280_humidity;BME280_pressure;Samples;Min_cycle;Max_cycle;Signal;HPM_P1;HPM_P2
2021/10/14 00:00:37;;;;;;;;;;;;;;;22.79;29.17;98148.94;5035277;28;1060;-77
2021/10/14 00:03:05;;;;;;;;;;;;;;;22.65;29.32;98154.28;5035033;28;902;-78
2021/10/14 00:05:34;;;;;;;;;;;;;;;23.04;28.34;98147.47;5035308;28;941;-77
2021/10/14 00:07:59;;;;;;;;;;;;;;;22.76;28.52;98144.19;5018715;28;759;-77
2021/10/14 00:10:25;;;;;;;;;;;;;;;22.51;29.05;98144.13;5020252;28;1969;-78
2021/10/14 00:12:50;;;;;;;;;;;;;;;22.39;29.09;98147.69;5015267;28;930;-77
2021/10/14 00:15:16;;;;;;;;;;;;;;;22.35;29.66;98148.59;5015282;28;912;-77
2021/10/14 00:17:41;;;;;;;;;;;;;;;22.35;29.26;98147.78;5015156;28;1046;-77
2021/10/14 00:20:07;;;;;;;;;;;;;;;22.34;29.39;98141.31;5014803;28;668;-77
2021/10/14 00:22:33;;;;;;;;;;;;;;;22.35;29.54;98142.91;5015440;28;914;-77
2021/10/14 00:24:58;;;;;;;;;;;;;;;22.20;29.82;98147.38;5014786;28;874;-77
2021/10/14 00:27:23;;;;;;;;;;;;;;;22.27;29.47;98150.00;5015422;28;810;-77
2021/10/14 00:29:49;;;;;;;;;;;;;;;21.94;30.47;98156.94;5014858;28;1980;-77
2021/10/14 00:32:14;;;;;;;;;;;;;;;21.75;30.79;98150.91;5015745;28;732;-77
2021/10/14 00:34:40;;;;;;;;;;;;;;;22.04;30.45;98161.53;5045353;28;908;-77
2021/10/14 00:37:05;;;;;;;;;;;;;;;22.21;30.05;98160.31;5054887;28;876;-77
2021/10/14 00:39:31;;;;;;;;;;;;;;;21.75;30.69;98155.78;5054428;28;774;-77
2021/10/14 00:41:56;;;;;;;;;;;;;;;22.41;29.62;98150.88;5055145;28;747;-77
2021/10/14 00:44:21;;;;;;;;;;;;;;;22.38;29.46;98163.09;5054394;28;817;-77
2021/10/14 00:46:50;;;;;;;;;;;;;;;23.03;28.55;98155.19;5035030;28;1352;-77
2021/10/14 00:49:17;;;;;;;;;;;;;;;22.90;28.91;98159.22;5034538;28;1906;-77
2021/10/14 00:51:42;;;;;;;;;;;;;;;22.75;28.92;98164.50;5034737;28;907;-77
2021/10/14 00:54:08;;;;;;;;;;;;;;;22.94;28.30;98159.94;5034530;28;749;-77
2021/10/14 00:56:33;;;;;;;;;;;;;;;22.79;28.65;98160.31;5035339;28;727;-77
2021/10/14 00:58:59;;;;;;;;;;;;;;;22.55;28.69;98162.63;5034753;28;769;-77
2021/10/14 01:01:24;;;;;;;;;;;;;;;22.40;29.41;98171.97;5034772;28;766;-77
2021/10/14 01:03:49;;;;;;;;;;;;;;;22.31;29.48;98164.09;5034242;28;870;-77
2021/10/14 01:06:15;;;;;;;;;;;;;;;22.33;29.65;98168.09;5035354;28;901;-77
2021/10/14 01:08:40;;;;;;;;;;;;;;;22.26;29.60;98171.09;5034043;28;854;-77
2021/10/14 01:11:06;;;;;;;;;;;;;;;22.13;29.79;98172.28;5034700;28;1914;-77
2021/10/14 01:13:31;;;;;;;;;;;;;;;22.22;29.75;98176.06;5034239;28;837;-77
2021/10/14 01:15:56;;;;;;;;;;;;;;;22.41;29.39;98174.34;5035102;28;778;-76
2021/10/14 01:18:22;;;;;;;;;;;;;;;22.51;29.34;98183.81;5033912;28;1025;-77
2021/10/14 01:20:47;;;;;;;;;;;;;;;22.36;29.71;98183.41;5034965;28;758;-77
2021/10/14 01:23:13;;;;;;;;;;;;;;;22.54;29.44;98188.59;5033997;28;937;-77
2021/10/14 01:25:38;;;;;;;;;;;;;;;22.54;29.21;98177.25;5037281;28;941;-77
2021/10/14 01:28:04;;;;;;;;;;;;;;;22.57;29.19;98182.81;5017781;28;1032;-77
2021/10/14 01:30:29;;;;;;;;;;;;;;;22.23;29.76;98186.19;5038912;28;1913;-77
2021/10/14 01:32:54;;;;;;;;;;;;;;;22.84;28.71;98178.81;5040260;28;794;-77
2021/10/14 01:35:20;;;;;;;;;;;;;;;22.22;29.70;98178.09;5040917;28;727;-78
2021/10/14 01:37:46;;;;;;;;;;;;;;;22.38;29.46;98180.09;5040534;28;872;-77
2021/10/14 01:40:11;;;;;;;;;;;;;;;22.69;28.81;98189.81;5040412;28;778;-77
2021/10/14 01:42:37;;;;;;;;;;;;;;;22.77;28.44;98193.22;5058201;28;868;-77
2021/10/14 01:45:03;;;;;;;;;;;;;;;22.68;28.61;98188.19;5057497;28;817;-76
2021/10/14 01:47:28;;;;;;;;;;;;;;;22.53;28.78;98192.66;5058464;28;759;-77
2021/10/14 01:49:54;;;;;;;;;;;;;;;22.38;29.37;98199.94;5057667;28;1969;-77
2021/10/14 01:52:19;;;;;;;;;;;;;;;22.27;29.67;98203.88;5058215;28;782;-77
2021/10/14 01:54:44;;;;;;;;;;;;;;;22.23;29.44;98208.84;5057333;28;723;-76
2021/10/14 01:57:10;;;;;;;;;;;;;;;22.20;29.58;98208.94;5058042;28;926;-78
2021/10/14 01:59:35;;;;;;;;;;;;;;;22.03;30.07;98205.28;5057310;28;805;-77
2021/10/14 02:02:01;;;;;;;;;;;;;;;22.35;29.43;98213.78;5024400;28;934;-77
2021/10/14 02:04:26;;;;;;;;;;;;;;;22.32;29.31;98214.66;5057338;28;872;-78
2021/10/14 02:06:52;;;;;;;;;;;;;;;21.55;30.90;98220.97;5040885;28;833;-78
2021/10/14 02:09:17;;;;;;;;;;;;;;;22.18;29.70;98217.88;5057689;28;1902;-77
2021/10/14 02:11:42;;;;;;;;;;;;;;;22.12;30.30;98219.63;5057634;28;846;-77
2021/10/14 02:14:08;;;;;;;;;;;;;;;22.40;29.62;98220.16;5044028;28;834;-77
2021/10/14 02:16:33;;;;;;;;;;;;;;;22.74;28.95;98225.31;5040175;28;1001;-77
2021/10/14 02:18:59;;;;;;;;;;;;;;;22.71;29.27;98227.00;4997556;28;1442;-78
2021/10/14 02:21:24;;;;;;;;;;;;;;;22.70;28.96;98231.09;4998081;28;803;-77
2021/10/14 02:23:50;;;;;;;;;;;;;;;22.32;29.87;98234.50;4997328;28;782;-77
2021/10/14 02:26:15;;;;;;;;;;;;;;;22.71;29.43;98227.00;4998169;28;736;-77
2021/10/14 02:28:40;;;;;;;;;;;;;;;23.07;28.34;98231.72;4997715;28;778;-77
2021/10/14 02:31:06;;;;;;;;;;;;;;;22.75;28.64;98233.38;5017267;28;1989;-77
2021/10/14 02:33:31;;;;;;;;;;;;;;;22.75;28.77;98233.38;5016460;28;895;-78
2021/10/14 02:35:57;;;;;;;;;;;;;;;22.60;28.74;98238.66;5017695;28;901;-77
2021/10/14 02:38:22;;;;;;;;;;;;;;;22.50;29.26;98234.06;5016717;28;869;-77
2021/10/14 02:40:48;;;;;;;;;;;;;;;22.37;29.36;98230.34;5017479;28;922;-77
2021/10/14 02:43:13;;;;;;;;;;;;;;;22.22;29.63;98235.56;5016377;28;766;-77
2021/10/14 02:45:39;;;;;;;;;;;;;;;22.31;29.54;98232.13;5017241;28;1496;-77
2021/10/14 02:48:04;;;;;;;;;;;;;;;22.10;29.93;98239.09;5016761;28;799;-78
2021/10/14 02:50:29;;;;;;;;;;;;;;;21.82;30.42;98238.56;5060101;28;1983;-77
2021/10/14 02:52:55;;;;;;;;;;;;;;;22.24;29.77;98238.78;5076589;28;756;-78
2021/10/14 02:55:20;;;;;;;;;;;;;;;22.21;29.96;98239.66;5060063;28;695;-77
2021/10/14 02:57:46;;;;;;;;;;;;;;;21.93;30.57;98237.50;5036079;28;915;-77
2021/10/14 03:00:12;;;;;;;;;;;;;;;21.95;30.63;98230.16;5036346;28;908;-77
2021/10/14 03:02:37;;;;;;;;;;;;;;;21.83;30.40;98228.81;5008238;28;810;-78
2021/10/14 03:05:03;;;;;;;;;;;;;;;22.60;29.42;98226.50;5013046;28;1282;-78
2021/10/14 03:07:28;;;;;;;;;;;;;;;22.25;29.82;98229.03;4997034;28;932;-76
2021/10/14 03:09:53;;;;;;;;;;;;;;;22.74;29.43;98225.31;4996657;28;1902;-77
2021/10/14 03:12:19;;;;;;;;;;;;;;;22.44;29.57;98227.34;4997100;28;1031;-78
2021/10/14 03:14:44;;;;;;;;;;;;;;;22.72;29.38;98228.59;4996677;28;731;-77
2021/10/14 03:17:10;;;;;;;;;;;;;;;22.75;29.06;98218.41;4996878;28;998;-78
2021/10/14 03:19:36;;;;;;;;;;;;;;;23.06;28.53;98218.78;4996584;28;719;-77
2021/10/14 03:22:01;;;;;;;;;;;;;;;22.80;28.66;98212.97;4997034;28;723;-77
2021/10/14 03:24:27;;;;;;;;;;;;;;;22.56;28.76;98203.91;4996619;28;806;-77
2021/10/14 03:26:52;;;;;;;;;;;;;;;22.44;29.16;98218.03;5016098;28;1108;-77
2021/10/14 03:29:18;;;;;;;;;;;;;;;22.36;29.31;98215.38;5028182;28;1906;-77
2021/10/14 03:31:43;;;;;;;;;;;;;;;22.39;29.51;98210.88;5056043;28;794;-76
2021/10/14 03:34:08;;;;;;;;;;;;;;;22.44;29.29;98226.53;4996267;28;816;-77
2021/10/14 03:36:34;;;;;;;;;;;;;;;22.30;29.49;98237.00;4996117;28;794;-77
2021/10/14 03:38:59;;;;;;;;;;;;;;;22.26;29.62;98236.28;4996578;28;800;-78
2021/10/14 03:41:25;;;;;;;;;;;;;;;22.32;29.38;98236.56;4996488;28;783;-77
2021/10/14 03:43:50;;;;;;;;;;;;;;;22.18;29.84;98251.09;4996339;28;839;-77
2021/10/14 03:46:16;;;;;;;;;;;;;;;22.26;29.76;98250.47;4996388;28;864;-77
2021/10/14 03:48:41;;;;;;;;;;;;;;;22.04;30.29;98252.22;4995820;28;775;-77
2021/10/14 03:51:07;;;;;;;;;;;;;;;22.40;29.52;98251.34;4996095;28;1967;-77
2021/10/14 03:53:32;;;;;;;;;;;;;;;22.66;29.04;98253.09;4994784;28;854;-78
2021/10/14 03:55:57;;;;;;;;;;;;;;;22.51;29.22;98251.88;4996613;28;775;-77
2021/10/14 03:58:23;;;;;;;;;;;;;;;22.42;29.31;98248.84;4995756;28;986;-77
2021/10/14 04:00:49;;;;;;;;;;;;;;;22.68;28.91;98256.25;5015452;28;872;-77
2021/10/14 04:03:14;;;;;;;;;;;;;;;22.30;29.79;98250.38;5015085;28;847;-77
2021/10/14 04:05:40;;;;;;;;;;;;;;;22.80;28.80;98243.41;5025488;28;1034;-78
2021/10/14 04:08:05;;;;;;;;;;;;;;;22.71;28.90;98248.91;5074740;28;842;-77
2021/10/14 04:10:30;;;;;;;;;;;;;;;22.66;29.11;98253.09;5075090;28;1910;-77
2021/10/14 04:12:56;;;;;;;;;;;;;;;22.84;28.45;98247.69;5075279;28;767;-77
2021/10/14 04:15:21;;;;;;;;;;;;;;;22.57;28.70;98255.75;5076115;28;1538;-76
2021/10/14 04:17:47;;;;;;;;;;;;;;;22.60;28.84;98249.19;5041780;28;1168;-77
2021/10/14 04:20:12;;;;;;;;;;;;;;;22.43;29.24;98250.44;5075323;28;1025;-77
2021/10/14 04:22:37;;;;;;;;;;;;;;;22.33;29.33;98258.81;5075477;28;1388;-76
2021/10/14 04:25:03;;;;;;;;;;;;;;;22.38;29.47;98259.50;5093681;28;1553;-77
2021/10/14 04:27:29;;;;;;;;;;;;;;;22.15;29.47;98252.78;5078918;28;1071;-77
2021/10/14 04:29:54;;;;;;;;;;;;;;;22.25;29.75;98248.88;5095083;28;1906;-77
2021/10/14 04:32:19;;;;;;;;;;;;;;;22.24;29.84;98250.13;5082708;28;1198;-77
2021/10/14 04:34:45;;;;;;;;;;;;;;;22.39;29.30;98246.94;5059421;28;906;-77
2021/10/14 04:37:10;;;;;;;;;;;;;;;22.30;29.56;98264.56;5077946;28;958;-78
2021/10/14 04:39:36;;;;;;;;;;;;;;;22.03;29.99;98256.28;5034702;28;946;-78
2021/10/14 04:42:02;;;;;;;;;;;;;;;22.05;30.22;98265.13;5019113;28;1034;-77
2021/10/14 04:44:27;;;;;;;;;;;;;;;22.23;29.71;98271.22;5034793;28;905;-77
2021/10/14 04:46:52;;;;;;;;;;;;;;;22.22;29.76;98280.94;5035222;28;857;-78
2021/10/14 04:49:18;;;;;;;;;;;;;;;22.18;30.01;98280.25;5035241;28;1898;-77
2021/10/14 04:51:43;;;;;;;;;;;;;;;22.76;28.85;98291.72;5006080;28;1445;-77
2021/10/14 04:54:09;;;;;;;;;;;;;;;22.91;28.51;98297.03;4978699;28;935;-77
2021/10/14 04:56:34;;;;;;;;;;;;;;;22.63;28.99;98293.66;4996076;28;943;-77
2021/10/14 04:58:59;;;;;;;;;;;;;;;22.93;28.53;98288.88;4995285;28;1013;-77
2021/10/14 05:01:25;;;;;;;;;;;;;;;22.57;29.06;98306.78;4995857;28;1656;-78
2021/10/14 05:03:50;;;;;;;;;;;;;;;22.91;28.29;98309.19;4995282;28;963;-77
2021/10/14 05:06:16;;;;;;;;;;;;;;;22.71;28.56;98309.28;4983111;28;1133;-77
2021/10/14 05:08:41;;;;;;;;;;;;;;;22.51;28.85;98314.25;4999343;28;1059;-76
2021/10/14 05:11:10;;;;;;;;;;;;;;;22.46;28.96;98320.47;5028447;28;1918;-77
2021/10/14 05:13:35;;;;;;;;;;;;;;;22.28;29.55;98323.75;5018558;28;930;-77
2021/10/14 05:16:01;;;;;;;;;;;;;;;22.39;29.35;98334.81;5019419;28;932;-77
2021/10/14 05:18:27;;;;;;;;;;;;;;;22.33;29.27;98331.72;5018082;28;1057;-77
2021/10/14 05:20:52;;;;;;;;;;;;;;;22.41;29.12;98326.66;5020426;28;1659;-77
2021/10/14 05:23:17;;;;;;;;;;;;;;;22.35;29.32;98335.69;5023213;28;1703;-79
2021/10/14 05:25:43;;;;;;;;;;;;;;;22.32;29.53;98339.41;5018652;28;1088;-77
2021/10/14 05:28:08;;;;;;;;;;;;;;;22.25;29.53;98341.63;5018639;28;961;-77
2021/10/14 05:30:34;;;;;;;;;;;;;;;22.27;29.47;98339.94;5018607;28;1981;-77
2021/10/14 05:32:59;;;;;;;;;;;;;;;22.22;29.79;98331.94;5017666;28;1601;-77
2021/10/14 05:35:25;;;;;;;;;;;;;;;22.53;29.19;98334.44;5018614;28;931;-77
2021/10/14 05:37:50;;;;;;;;;;;;;;;22.46;29.35;98326.91;5018202;28;989;-76
2021/10/14 05:40:15;;;;;;;;;;;;;;;22.74;29.23;98333.94;5018222;28;1103;-76
2021/10/14 05:42:41;;;;;;;;;;;;;;;22.36;29.83;98319.47;4965876;28;1720;-77
2021/10/14 05:45:07;;;;;;;;;;;;;;;22.75;29.15;98331.88;4932355;29;1058;-77
2021/10/14 05:47:32;;;;;;;;;;;;;;;22.63;29.25;98339.06;4940397;29;1071;-77
2021/10/14 05:49:59;;;;;;;;;;;;;;;22.88;28.92;98333.56;4940708;29;1898;-78
2021/10/14 05:52:25;;;;;;;;;;;;;;;22.64;29.30;98329.31;4935698;29;1738;-77
2021/10/14 05:54:50;;;;;;;;;;;;;;;22.91;28.67;98331.09;4902205;29;1652;-77
2021/10/14 05:57:16;;;;;;;;;;;;;;;22.84;28.32;98335.66;4889325;29;926;-77
2021/10/14 05:59:41;;;;;;;;;;;;;;;22.53;28.79;98328.78;4884091;29;955;-77
2021/10/14 06:02:06;;;;;;;;;;;;;;;22.48;28.89;98332.13;4884412;29;887;-77
2021/10/14 06:04:32;;;;;;;;;;;;;;;22.34;29.53;98339.78;4883484;29;1705;-77
2021/10/14 06:06:57;;;;;;;;;;;;;;;22.31;29.59;98334.97;4886989;29;967;-77
2021/10/14 06:09:23;;;;;;;;;;;;;;;22.21;29.77;98341.69;4920916;29;1903;-77
2021/10/14 06:11:48;;;;;;;;;;;;;;;22.23;29.79;98335.59;4922008;29;990;-78
2021/10/14 06:14:15;;;;;;;;;;;;;;;22.26;29.81;98340.38;4934974;29;1643;-76
2021/10/14 06:16:40;;;;;;;;;;;;;;;22.23;29.58;98338.44;4939559;29;1536;-77
2021/10/14 06:19:06;;;;;;;;;;;;;;;22.23;29.89;98350.56;4943344;28;873;-77
2021/10/14 06:21:31;;;;;;;;;;;;;;;22.00;30.59;98347.84;4978910;28;906;-77
2021/10/14 06:23:56;;;;;;;;;;;;;;;22.41;29.90;98355.00;4981349;28;1633;-78
2021/10/14 06:26:22;;;;;;;;;;;;;;;22.64;29.36;98360.53;5019714;28;868;-77
2021/10/14 06:28:47;;;;;;;;;;;;;;;22.43;29.81;98370.31;5019523;28;935;-77
2021/10/14 06:31:13;;;;;;;;;;;;;;;22.61;29.20;98358.56;5034401;28;1991;-77
2021/10/14 06:33:38;;;;;;;;;;;;;;;22.53;29.79;98351.47;5022136;28;1650;-77
2021/10/14 06:36:04;;;;;;;;;;;;;;;22.69;29.40;98351.47;5039418;28;898;-77
2021/10/14 06:38:29;;;;;;;;;;;;;;;23.07;28.89;98351.72;5036560;28;969;-77
2021/10/14 06:40:55;;;;;;;;;;;;;;;23.18;28.43;98350.63;5037493;28;1103;-78
2021/10/14 06:43:20;;;;;;;;;;;;;;;23.04;28.41;98346.13;5036775;28;1679;-77
2021/10/14 06:45:45;;;;;;;;;;;;;;;22.71;28.77;98346.16;5038242;28;989;-77
2021/10/14 06:48:11;;;;;;;;;;;;;;;22.59;29.07;98359.00;5037447;28;910;-77
2021/10/14 06:50:36;;;;;;;;;;;;;;;22.29;29.35;98365.03;5037319;28;1973;-77
2021/10/14 06:53:03;;;;;;;;;;;;;;;22.29;29.46;98360.16;5036935;28;1851;-77
2021/10/14 06:55:28;;;;;;;;;;;;;;;22.30;29.59;98361.72;5037682;28;1015;-77
2021/10/14 06:57:54;;;;;;;;;;;;;;;22.12;29.95;98361.34;5017248;28;978;-78
2021/10/14 07:00:22;;;;;;;;;;;;;;;22.39;29.64;98366.00;5017263;28;1013;-77
2021/10/14 07:02:50;;;;;;;;;;;;;;;22.42;29.68;98356.59;4977588;28;1665;-77
2021/10/14 07:05:16;;;;;;;;;;;;;;;22.26;29.78;98344.00;4939501;29;954;-77
2021/10/14 07:07:41;;;;;;;;;;;;;;;22.15;30.41;98366.13;4939508;29;895;-77
2021/10/14 07:10:08;;;;;;;;;;;;;;;22.34;30.00;98359.63;4954258;29;1910;-78
2021/10/14 07:12:36;;;;;;;;;;;;;;;22.30;30.22;98367.41;4958817;29;913;-77
2021/10/14 07:15:01;;;;;;;;;;;;;;;22.75;29.23;98363.88;4958076;29;1590;-77
2021/10/14 07:17:27;;;;;;;;;;;;;;;22.96;29.14;98370.28;4966367;28;1275;-78
2021/10/14 07:19:52;;;;;;;;;;;;;;;22.61;29.40;98359.34;4977220;28;1016;-78
2021/10/14 07:22:18;;;;;;;;;;;;;;;22.83;29.16;98355.97;4977663;28;939;-77
2021/10/14 07:24:43;;;;;;;;;;;;;;;22.87;29.27;98359.53;4960002;28;1700;-77
2021/10/14 07:27:09;;;;;;;;;;;;;;;23.18;28.59;98353.47;4969233;28;1747;-77
2021/10/14 07:29:34;;;;;;;;;;;;;;;23.19;28.34;98347.31;4977191;28;1906;-76
2021/10/14 07:32:00;;;;;;;;;;;;;;;22.90;28.43;98349.34;4960464;28;1779;-76
2021/10/14 07:34:28;;;;;;;;;;;;;;;22.51;29.24;98336.94;4957689;29;1049;-77
2021/10/14 07:36:56;;;;;;;;;;;;;;;22.53;29.32;98345.78;4988982;28;904;-76
2021/10/14 07:39:21;;;;;;;;;;;;;;;22.34;29.77;98345.44;5000541;28;2310;-76
2021/10/14 07:41:47;;;;;;;;;;;;;;;22.38;29.65;98351.00;5012615;28;1769;-77
2021/10/14 07:44:13;;;;;;;;;;;;;;;22.34;29.70;98356.78;5001473;28;1719;-76
2021/10/14 07:46:39;;;;;;;;;;;;;;;22.21;30.00;98358.69;5016216;28;986;-77
2021/10/14 07:49:04;;;;;;;;;;;;;;;21.93;30.33;98379.16;5000988;28;884;-77
2021/10/14 07:51:30;;;;;;;;;;;;;;;22.37;29.47;98383.44;4996170;28;1910;-76
2021/10/14 07:53:55;;;;;;;;;;;;;;;22.48;29.54;98394.53;4996043;28;1037;-77
2021/10/14 07:56:21;;;;;;;;;;;;;;;22.23;30.22;98395.94;4996202;28;1867;-77
2021/10/14 07:58:46;;;;;;;;;;;;;;;22.35;30.28;98392.41;4989087;28;1146;-77
2021/10/14 08:01:12;;;;;;;;;;;;;;;22.78;29.37;98385.66;4977275;28;957;-77
2021/10/14 08:03:38;;;;;;;;;;;;;;;22.85;29.35;98382.66;4975973;28;1000;-78
2021/10/14 08:06:03;;;;;;;;;;;;;;;22.66;29.60;98383.56;4976330;28;998;-77
2021/10/14 08:08:29;;;;;;;;;;;;;;;22.45;29.97;98378.41;4976058;28;862;-77
2021/10/14 08:10:55;;;;;;;;;;;;;;;22.34;29.99;98375.84;4952385;29;1986;-77
2021/10/14 08:13:20;;;;;;;;;;;;;;;22.82;29.42;98372.19;4918709;29;1427;-77
2021/10/14 08:15:49;;;;;;;;;;;;;;;23.13;28.64;98366.94;4932673;29;2234;-77
2021/10/14 08:18:15;;;;;;;;;;;;;;;23.05;28.51;98374.06;4899488;29;1297;-78
2021/10/14 08:20:41;;;;;;;;;;;;;;;22.92;28.57;98370.34;4886872;29;979;-77
2021/10/14 08:23:06;;;;;;;;;;;;;;;22.51;29.27;98376.63;4889992;29;1640;-77
2021/10/14 08:25:32;;;;;;;;;;;;;;;22.48;29.23;98369.00;4884780;29;1641;-78
2021/10/14 08:27:57;;;;;;;;;;;;;;;22.46;29.29;98369.44;4881156;29;1903;-77
2021/10/14 08:30:23;;;;;;;;;;;;;;;22.41;29.77;98372.03;4881089;29;1898;-77
2021/10/14 08:32:52;;;;;;;;;;;;;;;22.27;30.10;98368.28;4880495;29;1741;-77
2021/10/14 08:35:17;;;;;;;;;;;;;;;22.28;30.01;98375.56;4881110;29;935;-77
2021/10/14 08:37:43;;;;;;;;;;;;;;;22.32;29.98;98367.75;4895670;29;1018;-77
2021/10/14 08:40:08;;;;;;;;;;;;;;;22.21;30.05;98370.03;4899112;29;1059;-78
2021/10/14 08:42:33;;;;;;;;;;;;;;;22.27;30.05;98368.28;4929254;29;1472;-77
2021/10/14 08:45:00;;;;;;;;;;;;;;;22.32;30.19;98376.25;4937602;29;925;-76
2021/10/14 08:47:26;;;;;;;;;;;;;;;22.48;29.78;98366.97;4956199;28;1602;-77
2021/10/14 08:49:52;;;;;;;;;;;;;;;22.47;29.94;98370.25;5006108;28;1985;-77
2021/10/14 08:52:17;;;;;;;;;;;;;;;22.67;29.61;98370.16;5017201;28;957;-77
2021/10/14 08:54:43;;;;;;;;;;;;;;;22.49;30.08;98373.47;5017159;28;929;-77
2021/10/14 08:57:08;;;;;;;;;;;;;;;22.45;29.89;98372.75;5054341;28;1725;-77
2021/10/14 08:59:34;;;;;;;;;;;;;;;22.60;29.95;98379.66;5037469;28;1049;-77
2021/10/14 09:02:02;;;;;;;;;;;;;;;23.05;29.04;98376.09;5055158;28;1023;-78
2021/10/14 09:04:28;;;;;;;;;;;;;;;22.41;29.93;98383.38;4995013;28;969;-77
2021/10/14 09:06:55;;;;;;;;;;;;;;;22.69;29.55;98377.00;4975656;28;1732;-77
2021/10/14 09:09:21;;;;;;;;;;;;;;;22.73;29.27;98377.69;4975825;28;1262;-77
2021/10/14 09:11:47;;;;;;;;;;;;;;;22.61;29.41;98382.03;4959537;28;1915;-77
2021/10/14 09:14:13;;;;;;;;;;;;;;;22.40;29.49;98384.59;4975703;28;1022;-77
2021/10/14 09:16:41;;;;;;;;;;;;;;;22.34;29.79;98385.13;4975883;28;1629;-77
2021/10/14 09:19:17;;;;;;;;;;;;;;;22.30;29.89;98378.75;4975657;28;1325;-76
2021/10/14 09:21:49;;;;;;;;;;;;;;;20.81;29.77;98151.41;4976049;28;1646;-77
2021/10/14 09:24:24;;;;;;;;;;;;;;;22.31;29.66;98386.00;4976015;28;967;-77
2021/10/14 09:26:49;;;;;;;;;;;;;;;22.33;29.58;98371.41;4975814;28;1676;-77
2021/10/14 09:29:15;;;;;;;;;;;;;;;22.33;29.58;98377.06;4936553;29;1681;-77
2021/10/14 09:31:47;;;;;;;;;;;;;;;22.20;30.12;98373.31;4937265;29;1907;-77
2021/10/14 09:34:21;;;;;;;;;;;;;;;22.12;29.87;98372.66;4936820;29;1037;-76
2021/10/14 09:36:47;;;;;;;;;;;;;;;21.68;31.11;98360.66;4960011;28;1014;-77
2021/10/14 09:39:12;;;;;;;;;;;;;;;22.49;29.66;98368.59;5014315;28;1731;-77
2021/10/14 09:41:39;;;;;;;;;;;;;;;22.00;30.69;98359.97;4998714;28;882;-77
2021/10/14 09:44:13;;;;;;;;;;;;;;;22.33;29.89;98377.06;5014561;28;1014;-77
2021/10/14 09:46:39;;;;;;;;;;;;;;;22.37;29.87;98372.09;5014981;28;911;-77
2021/10/14 09:49:05;;;;;;;;;;;;;;;22.87;28.94;98377.34;5014097;28;1613;-77
2021/10/14 09:51:31;;;;;;;;;;;;;;;22.17;30.00;98375.00;5016481;28;1988;-77
2021/10/14 09:53:57;;;;;;;;;;;;;;;23.10;28.76;98372.72;5017799;28;967;-78
2021/10/14 09:56:23;;;;;;;;;;;;;;;22.67;29.35;98368.13;5018438;28;1183;-78
2021/10/14 09:58:48;;;;;;;;;;;;;;;22.69;29.40;98368.50;4999163;28;1680;-79
2021/10/14 10:01:16;;;;;;;;;;;;;;;22.78;29.04;98368.66;5002476;28;1002;-79
2021/10/14 10:03:42;;;;;;;;;;;;;;;22.70;28.85;98366.47;4999132;28;952;-78
2021/10/14 10:06:07;;;;;;;;;;;;;;;22.70;28.90;98360.78;4999690;28;1770;-77
2021/10/14 10:08:34;;;;;;;;;;;;;;;22.41;29.44;98360.69;4958309;29;1579;-77
2021/10/14 10:11:03;;;;;;;;;;;;;;;22.29;29.68;98362.19;4944292;29;1984;-77
2021/10/14 10:13:30;;;;;;;;;;;;;;;22.28;29.47;98358.56;4943216;28;2055;-78
2021/10/14 10:15:59;;;;;;;;;;;;;;;22.40;29.61;98354.22;4960151;29;1649;-77
2021/10/14 10:18:27;;;;;;;;;;;;;;;22.36;29.27;98359.97;4942583;29;1491;-77
2021/10/14 10:20:53;;;;;;;;;;;;;;;22.38;29.56;98362.34;4959525;29;1012;-78
2021/10/14 10:23:37;;;;;;;;;;;;;;;22.11;29.57;98359.75;4958510;29;973;-77
2021/10/14 10:26:02;;;;;;;;;;;;;;;21.88;30.71;98368.34;4959037;29;1650;-77
2021/10/14 10:28:37;;;;;;;;;;;;;;;21.95;30.28;98351.19;4958504;29;1583;-77
2021/10/14 10:31:02;;;;;;;;;;;;;;;22.41;29.65;98363.50;4958973;29;1985;-77
2021/10/14 10:33:52;;;;;;;;;;;;;;;22.42;29.68;98362.28;4901418;29;1075;-77
2021/10/14 10:36:36;;;;;;;;;;;;;;;23.03;28.48;98353.84;4889271;29;1613;-77
2021/10/14 10:39:02;;;;;;;;;;;;;;;22.61;29.20;98350.84;4899786;29;968;-76
2021/10/14 10:41:27;;;;;;;;;;;;;;;22.25;30.09;98347.28;4939976;29;946;-79
2021/10/14 10:43:59;;;;;;;;;;;;;;;23.05;28.63;98347.72;4940102;29;983;-77
2021/10/14 10:46:27;;;;;;;;;;;;;;;23.10;28.19;98338.66;4954217;29;1721;-77
2021/10/14 10:48:53;;;;;;;;;;;;;;;22.85;28.61;98339.31;4957645;29;1594;-76
2021/10/14 10:51:28;;;;;;;;;;;;;;;22.55;29.03;98331.97;4958149;29;1922;-77
2021/10/14 10:53:53;;;;;;;;;;;;;;;22.43;29.14;98329.84;4957985;29;966;-76
2021/10/14 10:56:28;;;;;;;;;;;;;;;22.46;29.12;98335.44;4944236;29;1610;-77
2021/10/14 10:58:54;;;;;;;;;;;;;;;22.44;29.27;98337.13;4945939;29;1662;-77
2021/10/14 11:01:19;;;;;;;;;;;;;;;22.36;29.31;98340.13;4950688;29;984;-77
2021/10/14 11:03:48;;;;;;;;;;;;;;;22.25;29.61;98336.75;4923169;29;963;-77
2021/10/14 11:06:14;;;;;;;;;;;;;;;22.18;29.80;98334.09;4938817;29;1671;-77
2021/10/14 11:08:39;;;;;;;;;;;;;;;22.23;29.71;98333.56;4957496;29;1642;-77
2021/10/14 11:11:05;;;;;;;;;;;;;;;22.22;29.74;98340.44;4939260;29;1981;-77
2021/10/14 11:13:37;;;;;;;;;;;;;;;22.07;30.07;98342.81;4984324;28;1005;-77
2021/10/14 11:16:03;;;;;;;;;;;;;;;22.25;29.70;98341.63;5016573;28;1675;-77
2021/10/14 11:18:29;;;;;;;;;;;;;;;22.54;29.38;98331.19;5015429;28;1260;-77
2021/10/14 11:20:58;;;;;;;;;;;;;;;22.39;29.57;98318.59;4919655;29;1846;-78
2021/10/14 11:23:30;;;;;;;;;;;;;;;22.44;29.46;98314.44;4919598;29;966;-77
2021/10/14 11:26:14;;;;;;;;;;;;;;;22.88;29.08;98310.84;4909498;29;1817;-77
2021/10/14 11:29:00;;;;;;;;;;;;;;;22.94;28.63;98310.31;4900560;29;885;-77
2021/10/14 11:31:28;;;;;;;;;;;;;;;23.14;28.25;98319.50;4900573;29;1906;-77
2021/10/14 11:33:53;;;;;;;;;;;;;;;22.82;28.94;98311.81;4900213;29;1011;-77
2021/10/14 11:36:20;;;;;;;;;;;;;;;22.74;28.85;98316.91;4913419;29;1731;-77
2021/10/14 11:38:54;;;;;;;;;;;;;;;22.58;29.15;98308.38;4919154;29;980;-77
2021/10/14 11:41:20;;;;;;;;;;;;;;;22.56;29.04;98308.84;4930633;28;976;-77
2021/10/14 11:43:45;;;;;;;;;;;;;;;22.54;29.09;98310.53;4976744;28;992;-78
2021/10/14 11:46:11;;;;;;;;;;;;;;;22.47;29.25;98302.19;4972804;28;1665;-77
2021/10/14 11:48:36;;;;;;;;;;;;;;;22.47;29.39;98313.53;4974009;28;1542;-76
2021/10/14 11:51:07;;;;;;;;;;;;;;;22.29;29.36;98311.94;4969450;28;1985;-77
2021/10/14 11:53:33;;;;;;;;;;;;;;;22.31;29.69;98306.63;5035263;28;991;-77
2021/10/14 11:55:59;;;;;;;;;;;;;;;22.26;29.68;98301.50;5027135;28;1643;-78
2021/10/14 11:58:25;;;;;;;;;;;;;;;22.24;29.71;98309.66;5016389;28;965;-77
2021/10/14 12:00:50;;;;;;;;;;;;;;;22.21;29.80;98318.22;5017803;28;900;-77
2021/10/14 12:03:16;;;;;;;;;;;;;;;22.16;29.59;98311.03;5016009;28;1084;-78
2021/10/14 12:05:42;;;;;;;;;;;;;;;21.88;30.59;98314.53;5047598;28;1635;-77
2021/10/14 12:08:07;;;;;;;;;;;;;;;21.72;31.31;98310.41;5055094;28;927;-77
2021/10/14 12:10:37;;;;;;;;;;;;;;;22.40;29.86;98322.22;5055123;28;1917;-78
2021/10/14 12:13:05;;;;;;;;;;;;;;;23.02;28.81;98320.25;5054510;28;934;-77
2021/10/14 12:15:31;;;;;;;;;;;;;;;22.56;29.48;98323.03;5054073;28;1686;-77
2021/10/14 12:17:56;;;;;;;;;;;;;;;23.11;28.84;98315.53;5044254;28;1172;-77
2021/10/14 12:20:22;;;;;;;;;;;;;;;22.98;28.91;98320.34;5054863;28;942;-76
2021/10/14 12:22:57;;;;;;;;;;;;;;;22.84;29.14;98318.63;5054780;28;1069;-77
2021/10/14 12:25:23;;;;;;;;;;;;;;;23.09;28.75;98317.19;5038228;28;1615;-77
2021/10/14 12:27:49;;;;;;;;;;;;;;;22.65;29.15;98313.91;5054971;28;1021;-78
2021/10/14 12:30:17;;;;;;;;;;;;;;;22.49;29.39;98305.41;5055168;28;1914;-77
2021/10/14 12:32:42;;;;;;;;;;;;;;;22.83;28.76;98294.34;5054591;28;960;-76
2021/10/14 12:35:08;;;;;;;;;;;;;;;22.54;29.33;98285.03;5054759;28;1599;-77
2021/10/14 12:37:33;;;;;;;;;;;;;;;22.43;29.52;98278.81;5004534;28;981;-77
2021/10/14 12:40:11;;;;;;;;;;;;;;;22.40;29.65;98285.38;5015031;28;995;-77
2021/10/14 12:42:46;;;;;;;;;;;;;;;22.21;29.79;98285.00;5015548;28;975;-77
2021/10/14 12:45:13;;;;;;;;;;;;;;;22.27;29.57;98269.06;5013837;28;1656;-77
2021/10/14 12:47:46;;;;;;;;;;;;;;;22.25;29.79;98271.56;4995471;28;973;-78
2021/10/14 12:52:43;;;;;;;;;;;;;;;22.07;30.43;98262.66;5034453;28;1231;-76
2021/10/14 12:55:09;;;;;;;;;;;;;;;22.26;30.22;98258.97;5000619;28;1715;-77
2021/10/14 12:57:35;;;;;;;;;;;;;;;22.34;29.92;98259.59;4975585;28;1002;-77
2021/10/14 13:00:00;;;;;;;;;;;;;;;22.59;29.81;98258.97;4982954;28;999;-77